Time;durP1;ratioP1;P1;durP2;ratioP2;P2;SDS_P1;SDS_P2;PMS_P1;PMS_P2;Temp;Humidity;BMP_temperature;BMP_pressure;BME280_temperature;BME280_humidity;BME280_pressure;Samples;Min_cycle;Max_cycle;Signal;HPM_P1;HPM_P2
2023/05/25 00:00:34;;;;;;;3.93;2.70;;;9.00;66.90;;;8.76;62.31;98445.91;5020799;28;20469;-78
2023/05/25 00:03:02;;;;;;;5.70;2.53;;;9.00;67.20;;;8.64;62.17;98432.13;5005017;28;20556;-72
2023/05/25 00:05:29;;;;;;;2.77;2.50;;;8.90;67.20;;;8.60;62.95;98441.63;5008582;28;20463;-72
2023/05/25 00:07:58;;;;;;;3.70;2.70;;;8.80;68.00;;;8.52;63.16;98434.50;5004042;28;20458;-72
2023/05/25 00:10:25;;;;;;;10.20;2.93;;;8.70;68.50;;;8.48;63.38;98438.56;5020187;28;20451;-71
2023/05/25 00:12:55;;;;;;;3.37;2.70;;;8.70;69.10;;;8.53;63.59;98436.19;5001193;28;20502;-70
2023/05/25 00:15:23;;;;;;;4.90;2.90;;;8.80;69.20;;;8.57;63.15;98426.69;5012133;28;20462;-70
2023/05/25 00:17:53;;;;;;;8.77;2.97;;;8.80;69.40;;;8.51;63.13;98427.47;4998103;28;20453;-71
2023/05/25 00:20:20;;;;;;;4.50;2.50;;;8.80;69.30;;;8.25;64.23;98427.97;5009071;28;20456;-73
2023/05/25 00:22:47;;;;;;;4.47;2.70;;;8.70;69.90;;;8.36;64.20;98432.84;4993352;28;20463;-72
2023/05/25 00:25:17;;;;;;;4.20;1.93;;;8.60;70.50;;;8.31;64.72;98427.22;5022159;28;20465;-71
2023/05/25 00:27:44;;;;;;;3.90;2.63;;;8.60;71.10;;;8.16;64.72;98420.03;5007970;28;20567;-71
2023/05/25 00:30:12;;;;;;;5.43;3.00;;;8.50;71.10;;;8.20;64.94;98426.69;5013002;28;20458;-72
2023/05/25 00:32:39;;;;;;;7.20;4.20;;;8.50;72.00;;;8.09;65.81;98424.47;5016374;28;20450;-71
2023/05/25 00:35:08;;;;;;;6.73;2.97;;;8.30;72.10;;;8.11;65.43;98427.81;5020847;28;20838;-74
2023/05/25 00:37:35;;;;;;;2.80;2.60;;;8.30;72.60;;;8.03;66.07;98420.69;5019799;28;20549;-72
2023/05/25 00:40:03;;;;;;;6.97;3.20;;;8.30;73.00;;;7.95;66.26;98423.50;5002812;28;20490;-69
2023/05/25 00:42:34;;;;;;;4.20;3.20;;;8.30;73.40;;;8.02;66.05;98419.03;5018560;28;20561;-70
2023/05/25 00:45:02;;;;;;;5.20;2.90;;;8.30;73.70;;;8.04;66.08;98433.16;5015275;28;20448;-70
2023/05/25 00:47:30;;;;;;;4.60;3.33;;;8.30;73.60;;;7.96;66.54;98435.94;4990105;28;20463;-70
2023/05/25 00:49:58;;;;;;;6.33;2.83;;;8.20;74.00;;;7.70;66.41;98401.47;4998005;28;20466;-75
2023/05/25 00:52:26;;;;;;;3.20;2.87;;;8.20;74.10;;;8.03;66.20;98434.13;5012968;28;20465;-69
2023/05/25 00:54:55;;;;;;;5.07;3.63;;;8.20;74.50;;;8.02;66.19;98428.97;5008159;28;20545;-72
2023/05/25 00:57:25;;;;;;;8.93;3.27;;;8.20;74.30;;;8.11;65.80;98416.22;5011050;28;20524;-69
2023/05/25 00:59:55;;;;;;;4.83;3.50;;;8.30;74.50;;;8.27;65.00;98428.63;5006205;28;20994;-69
2023/05/25 01:02:24;;;;;;;5.60;3.40;;;8.50;74.00;;;8.21;65.59;98422.97;5020354;28;20473;-72
2023/05/25 01:04:54;;;;;;;7.23;3.50;;;8.50;73.90;;;8.26;65.89;98426.94;4998467;28;20741;-71
2023/05/25 01:07:24;;;;;;;4.60;3.33;;;8.50;74.10;;;8.14;65.95;98426.59;5017373;28;20449;-72
2023/05/25 01:10:01;;;;;;;3.43;3.00;;;8.40;74.10;;;8.04;66.35;98422.38;5015822;28;20547;-71
2023/05/25 01:12:30;;;;;;;14.20;3.97;;;8.30;74.40;;;8.16;66.08;98425.41;5010577;28;20467;-74
2023/05/25 01:15:02;;;;;;;7.80;3.27;;;8.40;74.60;;;8.06;66.51;98422.16;5017519;28;20532;-75
2023/05/25 01:17:31;;;;;;;9.17;3.50;;;8.30;74.60;;;7.71;67.04;98384.31;5004966;28;20534;-72
2023/05/25 01:19:58;;;;;;;4.97;2.73;;;8.20;75.10;;;7.85;67.36;98423.81;5014395;28;20455;-74
2023/05/25 01:22:32;;;;;;;4.13;3.17;;;8.10;75.20;;;7.75;67.49;98415.19;5013822;28;20458;-71
2023/05/25 01:25:06;;;;;;;9.97;3.33;;;8.00;75.70;;;7.81;67.27;98422.53;5017896;28;20457;-72
2023/05/25 01:27:42;;;;;;;4.40;3.60;;;8.00;75.90;;;7.72;67.91;98416.38;4994629;28;20504;-73
2023/05/25 01:30:14;;;;;;;4.57;3.10;;;7.90;76.10;;;7.59;68.34;98418.91;4997945;28;20519;-71
2023/05/25 01:32:43;;;;;;;5.40;3.37;;;7.80;76.70;;;7.48;68.68;98412.13;5022775;28;20439;-70
2023/05/25 01:35:11;;;;;;;4.27;3.20;;;7.70;77.10;;;7.54;68.94;98422.16;5017875;28;20510;-75
2023/05/25 01:37:45;;;;;;;4.90;3.17;;;7.70;77.40;;;7.05;69.32;98343.75;5000174;28;20535;-71
2023/05/25 01:40:15;;;;;;;5.37;3.87;;;7.60;78.10;;;7.45;69.34;98417.88;5012976;28;20826;-71
2023/05/25 01:42:42;;;;;;;4.43;3.60;;;7.60;78.10;;;7.37;69.28;98395.47;5008665;28;21999;-70
2023/05/25 01:45:11;;;;;;;8.03;3.90;;;7.70;78.40;;;7.51;69.42;98422.53;5013248;28;20462;-71
2023/05/25 01:47:45;;;;;;;3.90;3.20;;;7.60;78.50;;;7.47;69.20;98416.69;4999924;28;20458;-70
2023/05/25 01:50:23;;;;;;;6.63;3.40;;;7.60;78.60;;;7.27;70.13;98432.53;5020129;28;20555;-71
2023/05/25 01:52:59;;;;;;;8.30;3.30;;;7.50;78.80;;;7.28;70.30;98427.97;5015089;28;20462;-71
2023/05/25 01:55:28;;;;;;;7.70;3.77;;;7.50;79.30;;;7.27;70.50;98437.91;5017517;28;20463;-70
2023/05/25 01:57:59;;;;;;;6.37;3.93;;;7.40;79.70;;;7.21;70.96;98426.03;5011484;28;20520;-70
2023/05/25 02:00:30;;;;;;;7.07;4.17;;;7.40;80.20;;;7.31;71.12;98433.00;5021907;28;20466;-70
2023/05/25 02:02:57;;;;;;;14.13;4.63;;;7.40;80.70;;;7.26;71.06;98428.16;4998089;28;20469;-70
2023/05/25 02:05:26;;;;;;;8.50;4.60;;;7.50;81.00;;;7.41;70.96;98427.34;5014284;28;20462;-72
2023/05/25 02:07:55;;;;;;;7.87;3.90;;;7.60;81.00;;;7.31;71.95;98433.81;5011928;28;20482;-71
2023/05/25 02:10:22;;;;;;;14.27;3.87;;;7.60;81.30;;;7.29;71.48;98430.47;5026051;28;20468;-75
2023/05/25 02:12:49;;;;;;;6.53;4.20;;;7.60;81.30;;;7.21;71.74;98425.22;5023865;28;20479;-70
2023/05/25 02:15:19;;;;;;;5.57;3.67;;;7.40;82.10;;;7.14;71.57;98435.00;4996040;28;20458;-70
2023/05/25 02:17:47;;;;;;;5.80;3.43;;;7.30;81.60;;;7.16;72.35;98431.13;5002131;28;20540;-71
2023/05/25 02:20:14;;;;;;;10.07;3.80;;;7.30;82.80;;;7.14;72.01;98427.78;5021745;28;20454;-70
2023/05/25 02:22:41;;;;;;;6.53;3.93;;;7.30;82.30;;;7.05;72.65;98421.66;5001993;28;20545;-71
2023/05/25 02:25:11;;;;;;;6.60;4.33;;;7.30;82.70;;;7.05;72.11;98408.22;5025405;28;20459;-71
2023/05/25 02:27:38;;;;;;;6.63;4.20;;;7.40;82.80;;;6.80;72.75;98407.59;5004099;28;20454;-72
2023/05/25 02:30:07;;;;;;;10.33;4.00;;;7.30;82.50;;;7.01;72.62;98431.09;5017418;28;20461;-75
2023/05/25 02:32:34;;;;;;;8.87;5.60;;;7.30;83.20;;;7.08;73.18;98429.34;4998166;28;20449;-71
2023/05/25 02:35:02;;;;;;;5.80;4.43;;;7.30;84.00;;;7.09;72.88;98435.56;5013600;28;20596;-72
2023/05/25 02:37:29;;;;;;;7.30;4.30;;;7.30;83.80;;;7.08;73.14;98445.47;5003279;28;20480;-73
2023/05/25 02:39:56;;;;;;;14.63;6.73;;;7.30;83.30;;;7.00;72.45;98432.09;5005527;28;20996;-73
2023/05/25 02:42:25;;;;;;;12.33;6.50;;;7.20;83.30;;;6.84;73.80;98430.41;5002886;28;20477;-73
2023/05/25 02:44:52;;;;;;;8.70;4.27;;;7.10;83.90;;;6.87;73.74;98424.69;5013241;28;21119;-74
2023/05/25 02:47:20;;;;;;;9.57;4.77;;;7.00;85.10;;;6.78;73.92;98426.59;5014867;28;20494;-74
2023/05/25 02:49:47;;;;;;;13.53;5.53;;;7.00;85.50;;;6.67;74.22;98427.03;4994716;28;20470;-71
2023/05/25 02:52:14;;;;;;;6.47;4.23;;;6.90;86.00;;;6.58;75.10;98430.78;5019800;28;20505;-71
2023/05/25 02:54:42;;;;;;;7.30;5.10;;;6.80;86.90;;;6.58;75.78;98433.47;5005315;28;21346;-70
2023/05/25 02:57:09;;;;;;;7.10;5.43;;;6.70;87.50;;;6.57;75.71;98429.09;4998971;28;20578;-71
2023/05/25 02:59:38;;;;;;;9.33;5.17;;;6.70;88.60;;;6.63;75.52;98431.09;4994586;28;20501;-72
2023/05/25 03:02:06;;;;;;;9.03;5.67;;;6.80;88.30;;;6.61;75.40;98433.94;4994700;28;20529;-74
2023/05/25 03:04:36;;;;;;;13.43;6.40;;;6.70;89.00;;;6.50;75.64;98432.53;5018746;28;20516;-72
2023/05/25 03:07:04;;;;;;;9.43;5.43;;;6.70;88.60;;;6.46;76.36;98425.00;5021914;28;20490;-73
2023/05/25 03:09:31;;;;;;;8.40;5.93;;;6.70;89.20;;;6.61;76.02;98436.63;5020131;28;20457;-71
2023/05/25 03:11:58;;;;;;;8.83;5.80;;;6.70;89.50;;;6.69;75.22;98430.34;5014238;28;20531;-73
2023/05/25 03:14:26;;;;;;;8.37;4.77;;;6.80;88.40;;;6.56;75.33;98425.59;5020998;28;20462;-71
2023/05/25 03:16:55;;;;;;;10.20;6.70;;;6.80;88.00;;;6.47;75.93;98424.84;4993112;28;20478;-73
2023/05/25 03:19:22;;;;;;;10.57;4.97;;;6.70;88.60;;;6.41;76.50;98427.41;5022449;28;20473;-75
2023/05/25 03:21:49;;;;;;;12.53;6.00;;;6.60;89.10;;;5.99;76.53;98371.28;5017017;28;20552;-71
2023/05/25 03:24:16;;;;;;;10.33;5.97;;;6.60;89.40;;;6.51;76.08;98438.72;5004324;28;20965;-70
2023/05/25 03:26:43;;;;;;;6.47;5.10;;;6.70;89.90;;;6.44;76.06;98435.91;5013930;28;20995;-70
2023/05/25 03:29:10;;;;;;;9.63;5.37;;;6.60;89.80;;;6.52;76.00;98446.59;5001980;28;21105;-70
2023/05/25 03:31:38;;;;;;;11.40;6.00;;;6.70;90.10;;;6.57;75.88;98450.59;5013727;28;20467;-71
2023/05/25 03:34:06;;;;;;;9.50;5.20;;;6.80;89.60;;;6.66;75.82;98446.84;5012382;28;20470;-73
2023/05/25 03:36:34;;;;;;;8.33;4.77;;;6.80;88.70;;;6.42;75.00;98403.03;4994759;28;20593;-71
2023/05/25 03:39:01;;;;;;;7.57;4.70;;;6.90;88.70;;;6.81;75.07;98463.00;5022729;28;20630;-72
2023/05/25 03:41:28;;;;;;;13.23;4.87;;;7.10;88.00;;;6.92;74.60;98459.06;5007185;28;20458;-75
2023/05/25 03:43:55;;;;;;;8.67;5.00;;;7.10;87.00;;;6.98;74.58;98465.56;4998400;28;20451;-73
2023/05/25 03:46:22;;;;;;;6.50;4.30;;;7.20;87.30;;;6.86;74.67;98465.13;5018930;28;21383;-74
2023/05/25 03:48:50;;;;;;;7.17;5.07;;;7.20;86.00;;;7.05;74.24;98477.25;5003485;28;20469;-71
2023/05/25 03:51:18;;;;;;;10.80;5.87;;;7.30;85.90;;;7.03;73.09;98463.97;5015387;28;21032;-71
2023/05/25 03:53:45;;;;;;;9.17;5.73;;;7.40;84.10;;;7.09;73.63;98490.13;5025414;28;20518;-72
2023/05/25 03:56:13;;;;;;;11.60;5.20;;;7.40;84.40;;;7.14;73.03;98486.06;5015712;28;20512;-72
2023/05/25 03:58:40;;;;;;;9.07;5.20;;;7.50;83.40;;;6.95;72.47;98466.75;5010133;28;20559;-71
2023/05/25 04:01:08;;;;;;;7.67;4.47;;;7.50;82.90;;;6.97;73.58;98488.91;5005017;28;20458;-74
2023/05/25 04:03:35;;;;;;;10.93;4.87;;;7.30;83.40;;;7.09;73.33;98487.47;5018584;28;20534;-72
2023/05/25 04:06:03;;;;;;;9.00;4.87;;;7.40;83.70;;;7.15;73.03;98477.00;5007523;28;20467;-72
2023/05/25 04:08:32;;;;;;;4.53;3.90;;;7.50;83.40;;;7.43;72.17;98473.69;5004264;28;20462;-71
2023/05/25 04:10:59;;;;;;;7.40;4.07;;;7.70;82.90;;;8.03;70.60;98484.44;5036278;28;20457;-73
2023/05/25 04:13:26;;;;;;;7.73;3.87;;;8.20;82.20;;;8.56;67.15;98473.50;5010945;28;20847;-71
2023/05/25 04:15:55;;;;;;;5.00;4.10;;;8.80;79.20;;;9.34;65.61;98475.44;5016010;28;20824;-71
2023/05/25 04:18:22;;;;;;;8.37;4.70;;;9.50;78.10;;;10.04;61.91;98480.00;5002654;28;20473;-76
2023/05/25 04:20:50;;;;;;;4.63;3.93;;;10.30;74.20;;;10.45;60.04;98475.59;5002382;28;20963;-74
2023/05/25 04:23:18;;;;;;;6.63;3.90;;;10.90;72.00;;;11.18;59.64;98478.63;5016431;28;20466;-74
2023/05/25 04:25:49;;;;;;;6.80;3.63;;;11.60;70.60;;;11.20;58.80;98477.34;5013333;28;20938;-72
2023/05/25 04:28:17;;;;;;;9.23;4.20;;;12.00;67.40;;;11.74;56.88;98476.47;5023040;28;20958;-71
2023/05/25 04:30:44;;;;;;;5.27;3.67;;;12.50;66.00;;;12.51;55.68;98486.63;5000311;28;20538;-74
2023/05/25 04:33:12;;;;;;;7.80;3.87;;;13.20;65.10;;;13.04;52.08;98425.78;5017485;28;20569;-73
2023/05/25 04:35:39;;;;;;;6.60;4.07;;;13.90;61.40;;;13.77;50.76;98476.06;5021776;28;20477;-72
2023/05/25 04:38:07;;;;;;;9.73;4.07;;;14.30;59.10;;;13.92;50.02;98478.44;5017942;28;20480;-77
2023/05/25 04:40:34;;;;;;;6.73;3.80;;;14.50;58.00;;;13.79;50.39;98485.66;5017677;28;20486;-71
2023/05/25 04:43:03;;;;;;;10.03;4.33;;;14.70;56.80;;;12.75;53.09;98487.75;5015742;28;20467;-71
2023/05/25 04:45:32;;;;;;;5.37;4.53;;;14.10;56.80;;;12.49;53.16;98488.72;4993832;28;20485;-74
2023/05/25 04:48:00;;;;;;;6.23;4.30;;;13.70;57.00;;;12.48;53.79;98503.31;4994230;28;21289;-70
2023/05/25 04:50:27;;;;;;;7.60;4.77;;;13.50;57.80;;;12.60;53.39;98501.59;5016509;28;21050;-71
2023/05/25 04:52:55;;;;;;;17.23;4.40;;;13.50;57.90;;;12.99;53.07;98503.44;5008914;28;20467;-70
2023/05/25 04:55:22;;;;;;;7.63;4.53;;;13.60;58.10;;;13.73;50.77;98498.25;5012751;28;20467;-71
2023/05/25 04:57:52;;;;;;;6.93;4.60;;;14.10;57.10;;;13.43;51.03;98504.38;5015173;28;20482;-69
2023/05/25 05:00:21;;;;;;;9.77;4.17;;;14.10;56.70;;;13.34;51.27;98499.44;5007275;28;20448;-72
2023/05/25 05:02:49;;;;;;;8.23;4.07;;;14.30;56.40;;;13.78;50.86;98505.75;5020286;28;20490;-71
2023/05/25 05:05:16;;;;;;;7.07;4.37;;;14.20;56.80;;;14.34;49.09;98507.63;4996784;28;20443;-71
2023/05/25 05:07:43;;;;;;;8.67;4.13;;;14.90;55.90;;;14.92;48.32;98498.06;5013029;28;20460;-71
2023/05/25 05:10:12;;;;;;;7.80;3.90;;;15.60;55.00;;;15.13;46.75;98504.88;5009896;28;20456;-72
2023/05/25 05:12:39;;;;;;;9.73;4.10;;;15.90;53.80;;;15.28;46.73;98507.16;5011037;28;20463;-73
2023/05/25 05:15:08;;;;;;;6.63;3.93;;;15.70;53.60;;;15.13;47.06;98514.94;5013681;28;20454;-72
2023/05/25 05:17:37;;;;;;;7.00;4.63;;;16.30;53.10;;;14.21;49.10;98509.44;5015731;28;20503;-73
2023/05/25 05:20:06;;;;;;;5.97;3.80;;;15.70;52.80;;;14.82;47.76;98514.16;5001211;28;20467;-74
2023/05/25 05:22:33;;;;;;;8.47;4.60;;;15.90;53.00;;;14.82;48.43;98504.09;5011846;28;20468;-70
2023/05/25 05:25:00;;;;;;;4.10;3.53;;;15.80;53.30;;;15.82;46.06;98497.25;4994326;28;20457;-71
2023/05/25 05:27:28;;;;;;;7.07;3.30;;;16.40;52.90;;;16.27;45.31;98517.56;4994414;28;20724;-72
2023/05/25 05:29:55;;;;;;;7.77;4.00;;;16.80;52.00;;;16.91;43.66;98510.38;5011148;28;20482;-72
2023/05/25 05:32:22;;;;;;;5.77;4.20;;;17.30;51.50;;;16.02;44.10;98504.25;5010168;28;20554;-73
2023/05/25 05:34:51;;;;;;;7.43;4.70;;;17.60;50.20;;;14.99;46.50;98522.47;4993986;28;20469;-75
2023/05/25 05:37:18;;;;;;;6.70;3.60;;;16.40;50.60;;;15.33;46.66;98511.06;5013384;28;20463;-70
2023/05/25 05:39:46;;;;;;;7.37;4.13;;;16.10;51.40;;;16.00;45.81;98513.47;5019512;28;20827;-71
2023/05/25 05:42:13;;;;;;;8.50;4.13;;;16.60;51.80;;;15.85;45.26;98511.22;5011250;28;20491;-72
2023/05/25 05:44:42;;;;;;;5.00;3.40;;;16.90;51.10;;;15.69;45.04;98512.75;5018823;28;20519;-70
2023/05/25 05:47:09;;;;;;;5.40;3.53;;;16.90;50.40;;;14.80;47.10;98508.13;5009754;28;20477;-74
2023/05/25 05:49:38;;;;;;;5.60;4.03;;;16.20;50.80;;;15.35;46.29;98512.50;5007655;28;20497;-72
2023/05/25 05:52:09;;;;;;;8.80;3.60;;;16.20;50.80;;;15.26;46.72;98528.34;5021668;28;20539;-73
2023/05/25 05:54:37;;;;;;;6.33;3.40;;;16.10;50.70;;;15.23;46.18;98517.09;4995270;28;20525;-72
2023/05/25 05:57:05;;;;;;;4.77;3.37;;;16.00;50.50;;;15.25;46.42;98526.69;5007370;28;20519;-71
2023/05/25 05:59:32;;;;;;;6.77;3.30;;;16.00;50.90;;;16.14;44.48;98513.22;4992755;28;20499;-73
2023/05/25 06:01:59;;;;;;;3.90;2.97;;;16.60;50.40;;;15.24;45.90;98524.19;4996300;28;20542;-71
2023/05/25 06:04:27;;;;;;;5.60;3.60;;;16.30;50.20;;;14.51;47.47;98524.97;5016579;28;21350;-73
2023/05/25 06:06:54;;;;;;;6.30;3.23;;;15.60;50.50;;;14.77;47.21;98533.03;4994935;28;20473;-72
2023/05/25 06:09:25;;;;;;;5.70;3.60;;;15.60;51.00;;;15.13;46.49;98534.81;5008829;28;20460;-75
2023/05/25 06:11:52;;;;;;;5.80;3.43;;;15.80;51.00;;;14.55;47.87;98523.44;4998737;28;20467;-75
2023/05/25 06:14:19;;;;;;;3.73;3.13;;;15.50;51.00;;;14.80;47.51;98530.69;5000364;28;21335;-74
2023/05/25 06:16:47;;;;;;;5.70;3.40;;;15.60;51.10;;;14.61;48.63;98529.03;4997755;28;20453;-73
2023/05/25 06:19:15;;;;;;;7.20;4.20;;;15.50;51.80;;;13.87;49.19;98517.13;5015330;28;20478;-72
2023/05/25 06:21:42;;;;;;;6.07;3.73;;;14.80;51.60;;;13.24;51.13;98525.16;5016170;28;20460;-74
2023/05/25 06:24:10;;;;;;;7.33;3.60;;;14.10;52.40;;;13.18;51.96;98518.72;5000703;28;20459;-73
2023/05/25 06:26:38;;;;;;;3.20;2.90;;;13.80;53.30;;;13.32;51.52;98527.63;4988862;28;20506;-73
2023/05/25 06:29:06;;;;;;;5.53;3.20;;;13.80;53.90;;;13.31;51.49;98549.53;4996904;28;21464;-74
2023/05/25 06:31:33;;;;;;;8.30;3.40;;;13.80;54.00;;;13.13;52.13;98512.34;5009357;28;20466;-73
2023/05/25 06:34:01;;;;;;;6.90;3.60;;;13.70;54.40;;;13.34;51.59;98532.00;5017744;28;20996;-73
2023/05/25 06:36:28;;;;;;;5.10;3.40;;;13.80;54.30;;;13.00;51.49;98478.81;4989769;28;20482;-73
2023/05/25 06:38:56;;;;;;;5.57;3.60;;;13.90;54.30;;;13.39;51.21;98541.13;5018421;28;20973;-73
2023/05/25 06:41:23;;;;;;;5.80;3.70;;;13.90;54.10;;;13.35;51.81;98547.22;5001863;28;20464;-73
2023/05/25 06:43:51;;;;;;;5.63;3.40;;;13.80;54.40;;;13.16;51.96;98549.88;5020427;28;20468;-72
2023/05/25 06:46:20;;;;;;;8.63;3.13;;;13.60;54.40;;;13.19;51.61;98535.84;5015646;28;20484;-73
2023/05/25 06:48:47;;;;;;;4.17;2.87;;;13.60;54.40;;;13.21;51.76;98525.63;5016788;28;20531;-73
2023/05/25 06:51:15;;;;;;;5.50;3.67;;;13.60;54.60;;;13.26;51.64;98535.81;4996274;28;20467;-71
2023/05/25 06:53:42;;;;;;;5.50;2.83;;;13.60;54.50;;;13.40;51.58;98509.38;5013622;28;20487;-72
2023/05/25 06:56:10;;;;;;;7.47;3.10;;;13.80;55.00;;;13.66;50.97;98524.66;5010300;28;20534;-73
2023/05/25 06:58:37;;;;;;;4.37;3.10;;;13.90;54.50;;;13.88;51.25;98529.66;5005595;28;20530;-71
2023/05/25 07:01:05;;;;;;;11.50;3.63;;;14.10;55.00;;;14.07;50.49;98525.06;4995186;28;20462;-72
2023/05/25 07:03:33;;;;;;;5.70;3.20;;;14.30;54.70;;;13.95;50.45;98524.16;5015377;28;20662;-73
2023/05/25 07:06:00;;;;;;;6.00;3.40;;;14.30;54.50;;;14.11;51.23;98529.00;5015598;28;20509;-74
2023/05/25 07:08:27;;;;;;;5.90;3.17;;;14.40;55.20;;;14.40;49.98;98520.28;5018908;28;20463;-74
2023/05/25 07:10:54;;;;;;;6.93;3.30;;;14.60;54.50;;;14.40;49.44;98523.84;5025164;28;20473;-73
2023/05/25 07:13:21;;;;;;;9.03;4.07;;;14.70;53.80;;;14.42;48.48;98521.75;5022844;28;20493;-75
2023/05/25 07:15:51;;;;;;;5.67;3.17;;;14.80;53.20;;;14.55;48.49;98515.28;5022116;28;20460;-75
2023/05/25 07:18:20;;;;;;;6.50;4.83;;;14.90;53.60;;;14.72;47.68;98515.53;5015953;28;20556;-75
2023/05/25 07:20:47;;;;;;;7.07;3.50;;;15.10;53.30;;;14.80;48.11;98511.66;5004485;28;20814;-76
2023/05/25 07:23:15;;;;;;;4.40;3.07;;;15.10;53.00;;;15.10;47.16;98515.41;5019227;28;20470;-75
2023/05/25 07:25:42;;;;;;;10.30;3.40;;;15.30;52.90;;;14.90;46.88;98521.97;5025723;28;20449;-75
2023/05/25 07:28:09;;;;;;;5.27;2.90;;;15.30;52.20;;;14.81;47.29;98518.75;5018597;28;20468;-75
2023/05/25 07:30:37;;;;;;;5.27;3.50;;;15.20;52.10;;;15.13;47.80;98513.03;4996170;28;20507;-73
2023/05/25 07:33:04;;;;;;;4.37;3.10;;;15.40;52.80;;;15.15;47.37;98512.81;5010000;28;20917;-75
2023/05/25 07:35:34;;;;;;;4.83;3.10;;;15.40;52.60;;;15.20;47.16;98526.53;5019718;28;20473;-74
2023/05/25 07:38:03;;;;;;;4.30;3.43;;;15.50;52.50;;;15.42;47.16;98526.00;5005304;28;22349;-75
2023/05/25 07:40:30;;;;;;;9.10;4.10;;;15.60;53.00;;;15.36;46.12;98494.25;5013452;28;20502;-71
2023/05/25 07:42:58;;;;;;;5.53;2.70;;;15.80;52.10;;;15.36;46.82;98537.81;5016966;28;21066;-70
2023/05/25 07:45:25;;;;;;;4.23;2.60;;;15.70;51.90;;;15.18;46.95;98528.69;4992668;28;22493;-70
2023/05/25 07:47:52;;;;;;;7.43;4.20;;;15.60;51.90;;;15.51;45.88;98521.03;4989702;28;20461;-72
2023/05/25 07:50:19;;;;;;;5.87;3.80;;;15.70;51.70;;;15.58;46.04;98522.59;4995526;28;20488;-70
2023/05/25 07:52:48;;;;;;;4.33;3.37;;;15.80;51.80;;;15.49;46.83;98523.19;5011633;28;20458;-71
2023/05/25 07:55:15;;;;;;;6.17;3.63;;;15.80;51.80;;;15.72;46.29;98533.25;5018563;28;20464;-72
2023/05/25 07:57:43;;;;;;;5.57;3.10;;;16.00;51.70;;;15.69;45.40;98525.53;5014621;28;21028;-72
2023/05/25 08:00:11;;;;;;;5.70;2.97;;;16.00;51.30;;;15.85;45.95;98527.56;4995701;28;20997;-71
2023/05/25 08:02:38;;;;;;;6.03;3.70;;;16.10;51.60;;;15.63;45.71;98534.66;5001166;28;20470;-71
2023/05/25 08:05:07;;;;;;;4.13;3.00;;;16.10;51.10;;;15.83;45.86;98532.41;5008877;28;20466;-71
2023/05/25 08:07:34;;;;;;;4.73;3.30;;;16.10;51.70;;;15.92;45.99;98532.09;5008107;28;20884;-72
2023/05/25 08:10:04;;;;;;;6.40;3.00;;;16.10;51.60;;;16.13;45.72;98539.63;5010577;28;20466;-72
2023/05/25 08:12:32;;;;;;;4.70;3.00;;;16.30;52.00;;;16.28;45.75;98530.97;5012926;28;20454;-72
2023/05/25 08:15:00;;;;;;;6.80;3.50;;;16.40;52.10;;;16.30;45.64;98533.44;5018377;28;20462;-71
2023/05/25 08:17:27;;;;;;;7.70;3.33;;;16.50;51.80;;;16.00;46.16;98464.44;5013022;28;20474;-70
2023/05/25 08:19:55;;;;;;;8.10;3.60;;;16.60;52.10;;;16.38;45.15;98529.56;5013537;28;20489;-71
2023/05/25 08:22:22;;;;;;;4.00;3.40;;;16.70;51.40;;;16.56;44.90;98525.81;5013664;28;20543;-72
2023/05/25 08:24:49;;;;;;;7.33;3.40;;;16.70;51.40;;;16.87;45.67;98533.75;4991090;28;20962;-71
2023/05/25 08:27:18;;;;;;;3.87;3.33;;;16.90;52.20;;;16.49;45.10;98476.84;4996004;28;20524;-71
2023/05/25 08:29:46;;;;;;;4.87;2.93;;;17.00;51.70;;;16.81;44.14;98527.38;4995190;28;20470;-71
2023/05/25 08:32:13;;;;;;;4.80;3.13;;;17.00;50.90;;;16.61;44.55;98531.38;4991729;28;20505;-71
2023/05/25 08:34:40;;;;;;;3.00;2.70;;;17.00;50.90;;;16.58;44.10;98523.66;4992276;28;21020;-71
2023/05/25 08:37:07;;;;;;;8.37;3.57;;;16.90;50.60;;;16.31;44.86;98517.94;4994184;28;20469;-72
2023/05/25 08:39:34;;;;;;;4.43;3.93;;;16.70;50.80;;;16.43;45.06;98521.47;4989492;28;20481;-71
2023/05/25 08:42:02;;;;;;;5.23;3.50;;;16.70;51.10;;;16.60;44.42;98523.44;4995263;28;20465;-70
2023/05/25 08:44:31;;;;;;;9.03;3.93;;;16.80;51.20;;;16.43;45.05;98518.75;4993743;28;20957;-69
2023/05/25 08:47:05;;;;;;;5.27;3.40;;;16.80;51.00;;;16.69;45.30;98519.25;5011808;28;20483;-69
2023/05/25 08:49:38;;;;;;;4.47;2.80;;;16.90;51.30;;;16.85;44.07;98525.81;5001947;28;20468;-68
2023/05/25 08:52:06;;;;;;;5.77;3.57;;;17.10;50.80;;;16.97;44.05;98521.13;5016110;28;20477;-68
2023/05/25 08:54:36;;;;;;;4.13;3.60;;;17.20;50.90;;;17.01;44.32;98526.97;5013201;28;20495;-68
2023/05/25 08:57:12;;;;;;;5.07;3.70;;;17.30;51.00;;;17.02;44.41;98522.31;5013312;28;20573;-70
2023/05/25 08:59:50;;;;;;;5.03;3.30;;;17.30;50.80;;;17.21;44.09;98512.84;4991595;28;20482;-69
2023/05/25 09:02:26;;;;;;;4.23;2.90;;;17.40;50.90;;;17.47;43.46;98524.19;4997092;28;20466;-68
2023/05/25 09:04:55;;;;;;;5.20;3.33;;;17.50;50.80;;;17.66;43.49;98524.75;5000252;28;20449;-69
2023/05/25 09:07:23;;;;;;;6.90;3.30;;;17.70;51.00;;;17.70;43.13;98522.38;5017305;28;20562;-70
2023/05/25 09:09:51;;;;;;;5.23;3.53;;;17.80;50.60;;;17.90;42.35;98519.13;4990790;28;21045;-70
2023/05/25 09:12:19;;;;;;;4.60;3.57;;;17.90;50.10;;;17.88;42.92;98523.16;4996884;28;20483;-70
2023/05/25 09:14:48;;;;;;;5.27;3.33;;;18.00;50.50;;;17.59;42.82;98537.78;5010531;28;20461;-70
2023/05/25 09:17:17;;;;;;;7.03;3.70;;;18.00;49.90;;;17.71;42.88;98529.47;4994356;28;20454;-71
2023/05/25 09:19:44;;;;;;;3.93;3.50;;;18.00;50.10;;;17.87;43.12;98526.97;5015799;28;20490;-72
2023/05/25 09:22:11;;;;;;;5.00;3.40;;;18.00;50.60;;;17.72;42.14;98508.44;5016163;28;20473;-72
2023/05/25 09:24:40;;;;;;;3.87;3.10;;;18.00;49.90;;;17.88;42.69;98523.16;5014512;28;20462;-72
2023/05/25 09:27:11;;;;;;;5.80;3.83;;;18.00;50.10;;;18.01;42.93;98522.81;5009344;28;20463;-70
2023/05/25 09:29:38;;;;;;;6.23;3.37;;;18.10;50.40;;;18.26;42.38;98514.16;4993843;28;20890;-71
2023/05/25 09:32:07;;;;;;;6.63;3.67;;;18.30;50.50;;;17.79;42.50;98506.38;4994228;28;20521;-71
2023/05/25 09:34:35;;;;;;;4.93;3.80;;;18.30;49.90;;;17.91;43.30;98522.66;5015056;28;20454;-73
2023/05/25 09:37:04;;;;;;;5.10;3.60;;;18.10;50.50;;;18.27;42.76;98521.28;5013922;28;20470;-71
2023/05/25 09:39:32;;;;;;;4.87;3.53;;;18.30;50.60;;;18.37;42.26;98506.91;4994636;28;20478;-73
2023/05/25 09:42:00;;;;;;;5.30;4.10;;;18.60;50.40;;;18.68;41.88;98531.06;4992359;28;20451;-72
2023/05/25 09:44:28;;;;;;;5.47;3.80;;;18.70;50.10;;;18.58;42.47;98511.78;4997443;28;20459;-72
2023/05/25 09:46:56;;;;;;;4.63;3.30;;;18.70;50.20;;;18.80;42.14;98522.69;5009246;28;20606;-71
2023/05/25 09:49:26;;;;;;;4.80;3.80;;;18.80;50.50;;;18.85;41.77;98508.25;4998149;28;20471;-72
2023/05/25 09:51:54;;;;;;;4.00;3.60;;;18.90;50.40;;;18.83;42.33;98519.44;4995811;28;20524;-73
2023/05/25 09:54:22;;;;;;;6.23;3.80;;;18.90;50.50;;;18.81;42.49;98516.16;5010565;28;20462;-74
2023/05/25 09:56:50;;;;;;;3.40;3.10;;;19.00;50.60;;;18.82;42.33;98521.38;4997147;28;20462;-70
2023/05/25 09:59:17;;;;;;;5.97;3.47;;;19.00;50.50;;;18.76;42.27;98510.63;4994074;28;20477;-72
2023/05/25 10:01:45;;;;;;;6.83;3.23;;;19.00;50.30;;;18.31;42.27;98477.84;5015074;28;20452;-69
2023/05/25 10:04:16;;;;;;;3.80;3.10;;;18.80;49.90;;;18.81;42.28;98517.00;4997041;28;20456;-71
2023/05/25 10:06:49;;;;;;;4.20;3.17;;;19.00;50.30;;;18.97;42.24;98526.16;4995355;28;20634;-72
2023/05/25 10:09:19;;;;;;;5.43;3.37;;;19.10;50.50;;;18.91;41.99;98518.16;4999331;28;21290;-71
2023/05/25 10:11:47;;;;;;;8.33;3.67;;;19.10;50.10;;;18.95;41.58;98524.75;5018476;28;21090;-72
2023/05/25 10:14:21;;;;;;;3.60;3.30;;;19.10;49.80;;;19.16;41.38;98519.53;5000118;28;20487;-72
2023/05/25 10:16:50;;;;;;;5.47;3.30;;;19.20;49.80;;;19.20;42.38;98524.25;4997958;28;20516;-72
2023/05/25 10:19:28;;;;;;;7.73;4.10;;;19.30;50.50;;;19.35;41.48;98517.25;5002059;28;21016;-72
2023/05/25 10:22:04;;;;;;;5.17;3.40;;;19.40;50.10;;;19.48;41.11;98521.44;5014936;28;20477;-71
2023/05/25 10:24:38;;;;;;;4.23;3.57;;;19.60;50.00;;;19.24;41.19;98513.56;5019786;28;20486;-72
2023/05/25 10:27:11;;;;;;;4.07;3.67;;;19.50;49.40;;;19.25;41.77;98485.09;4997888;28;20462;-73
2023/05/25 10:29:40;;;;;;;7.07;3.40;;;19.50;50.30;;;19.48;41.43;98516.78;5015464;28;20461;-73